Time;durP1;ratioP1;P1;durP2;ratioP2;P2;SDS_P1;SDS_P2;PMS_P1;PMS_P2;Temp;Humidity;BMP_temperature;BMP_pressure;BME280_temperature;BME280_humidity;BME280_pressure;Samples;Min_cycle;Max_cycle;Signal;HPM_P1;HPM_P2
2024/01/26 00:01:48;;;;;;;3.25;1.42;;;22.00;43.70;;;;;;10461696;28;20402;-44
2024/01/26 00:06:51;;;;;;;2.47;1.10;;;22.10;43.60;;;;;;10457993;28;20565;-44
2024/01/26 00:11:52;;;;;;;2.47;1.30;;;22.10;43.40;;;;;;10452696;28;20510;-45
2024/01/26 00:16:54;;;;;;;3.35;1.52;;;22.10;43.40;;;;;;10451957;28;20220;-44
2024/01/26 00:21:57;;;;;;;2.13;1.30;;;22.00;43.50;;;;;;10455401;28;20045;-44
2024/01/26 00:26:59;;;;;;;2.20;1.40;;;21.90;43.70;;;;;;10451656;28;20473;-50
2024/01/26 00:32:00;;;;;;;1.92;1.50;;;21.90;43.40;;;;;;10444873;28;20135;-44
2024/01/26 00:37:04;;;;;;;3.47;1.80;;;21.90;43.50;;;;;;10451226;28;20060;-48
2024/01/26 00:42:05;;;;;;;4.82;1.70;;;21.90;43.40;;;;;;10455284;28;20135;-49
2024/01/26 00:47:07;;;;;;;2.10;1.23;;;22.00;43.20;;;;;;10456973;28;20099;-44
2024/01/26 00:52:10;;;;;;;2.47;1.50;;;21.90;43.50;;;;;;10450101;28;20053;-44
2024/01/26 00:57:12;;;;;;;3.08;1.40;;;21.90;43.30;;;;;;10450968;28;20127;-45
2024/01/26 01:02:13;;;;;;;3.75;1.70;;;22.00;43.10;;;;;;10458784;28;20145;-45
2024/01/26 01:07:17;;;;;;;2.65;1.60;;;21.90;43.30;;;;;;10451926;28;20087;-44
2024/01/26 01:12:19;;;;;;;2.60;1.80;;;22.00;43.00;;;;;;10451292;28;20052;-44
2024/01/26 01:17:21;;;;;;;3.33;1.60;;;21.80;43.40;;;;;;10452846;28;20139;-44
2024/01/26 01:22:24;;;;;;;3.17;1.80;;;21.80;43.20;;;;;;10455550;28;20132;-44
2024/01/26 01:27:25;;;;;;;2.25;1.30;;;21.80;43.00;;;;;;10453141;28;20530;-44
2024/01/26 01:32:27;;;;;;;2.20;1.60;;;21.70;43.20;;;;;;10456601;28;20127;-44
2024/01/26 01:37:30;;;;;;;3.63;1.80;;;21.70;43.20;;;;;;10451368;28;20131;-44
2024/01/26 01:42:31;;;;;;;3.25;1.85;;;21.60;43.50;;;;;;10434945;28;20040;-44
2024/01/26 01:47:33;;;;;;;2.33;1.75;;;21.60;43.50;;;;;;10453834;28;20133;-44
2024/01/26 01:52:37;;;;;;;3.60;1.25;;;21.50;43.70;;;;;;10452080;28;20124;-47
2024/01/26 01:57:39;;;;;;;2.70;1.83;;;21.40;43.70;;;;;;10456684;28;20055;-49
2024/01/26 02:02:41;;;;;;;2.78;1.80;;;21.60;43.20;;;;;;10457565;28;20099;-51
2024/01/26 02:07:48;;;;;;;2.50;1.63;;;21.60;43.40;;;;;;10456409;28;20543;-46
2024/01/26 02:12:50;;;;;;;2.88;1.60;;;21.80;42.80;;;;;;10450330;28;20053;-46
2024/01/26 02:17:51;;;;;;;3.45;2.08;;;21.80;43.00;;;;;;10454852;28;20591;-44
2024/01/26 02:22:54;;;;;;;3.13;1.90;;;21.90;42.60;;;;;;10440116;28;20152;-44
2024/01/26 02:27:57;;;;;;;3.85;1.88;;;21.80;42.70;;;;;;10460951;28;20231;-48
2024/01/26 02:32:59;;;;;;;2.85;1.98;;;21.60;43.00;;;;;;10460867;28;20402;-45
2024/01/26 02:38:00;;;;;;;3.47;2.10;;;21.60;42.90;;;;;;10458537;28;20052;-49
2024/01/26 02:43:04;;;;;;;2.53;1.75;;;21.70;42.70;;;;;;10454931;28;20136;-46
2024/01/26 02:48:06;;;;;;;2.42;1.73;;;21.70;42.80;;;;;;10459039;28;20124;-47
2024/01/26 02:53:08;;;;;;;4.03;2.40;;;21.80;42.60;;;;;;10451230;28;20413;-45
2024/01/26 02:58:10;;;;;;;3.05;2.00;;;21.90;42.30;;;;;;10451455;28;20136;-48
2024/01/26 03:03:13;;;;;;;3.25;2.00;;;21.80;42.30;;;;;;10451611;28;20044;-45
2024/01/26 03:08:14;;;;;;;3.20;2.13;;;21.70;42.60;;;;;;10455096;28;20045;-44
2024/01/26 03:13:18;;;;;;;2.70;1.90;;;21.60;42.60;;;;;;10459849;28;20120;-49
2024/01/26 03:18:19;;;;;;;3.08;1.90;;;21.60;42.70;;;;;;10465252;28;20075;-45
2024/01/26 03:23:21;;;;;;;3.03;1.90;;;21.40;42.80;;;;;;10470705;28;20140;-44
2024/01/26 03:28:24;;;;;;;3.40;1.80;;;21.40;42.80;;;;;;10456842;28;20494;-47
2024/01/26 03:33:26;;;;;;;3.95;2.00;;;21.40;42.80;;;;;;10467805;28;20045;-45
2024/01/26 03:38:27;;;;;;;2.88;1.98;;;21.50;42.80;;;;;;10448983;28;20128;-45
2024/01/26 03:43:30;;;;;;;2.50;1.70;;;21.60;42.70;;;;;;10446704;28;20048;-44
2024/01/26 03:48:32;;;;;;;3.38;2.10;;;21.50;42.70;;;;;;10452171;28;20037;-46
2024/01/26 03:53:33;;;;;;;2.53;1.95;;;21.60;42.50;;;;;;10449994;28;20041;-50
2024/01/26 03:58:36;;;;;;;3.47;2.05;;;21.40;43.00;;;;;;10454556;28;20052;-44
2024/01/26 04:03:38;;;;;;;2.95;2.20;;;21.20;43.30;;;;;;10464746;28;20132;-49
2024/01/26 04:08:40;;;;;;;4.13;2.45;;;21.40;43.20;;;;;;10452978;28;20132;-44
2024/01/26 04:13:42;;;;;;;3.33;2.40;;;21.70;43.10;;;;;;10449641;28;20053;-44
2024/01/26 04:18:44;;;;;;;3.33;2.40;;;21.90;42.80;;;;;;10455560;28;20602;-44
2024/01/26 04:23:46;;;;;;;4.00;2.50;;;22.10;42.60;;;;;;10458936;28;20051;-44
2024/01/26 04:28:49;;;;;;;4.15;2.50;;;22.10;42.30;;;;;;10446234;28;20051;-45
2024/01/26 04:33:51;;;;;;;3.53;2.72;;;22.20;42.30;;;;;;10470087;28;20482;-44
2024/01/26 04:38:52;;;;;;;3.30;2.28;;;22.30;41.90;;;;;;10451643;28;20509;-45
2024/01/26 04:43:55;;;;;;;3.47;2.45;;;22.50;41.50;;;;;;10448673;28;20127;-49
2024/01/26 04:48:57;;;;;;;2.50;2.10;;;22.40;41.40;;;;;;10450973;28;20080;-45
2024/01/26 04:53:58;;;;;;;4.65;2.30;;;22.40;41.60;;;;;;10444820;28;20047;-48
2024/01/26 04:59:02;;;;;;;3.65;2.60;;;22.60;41.10;;;;;;10454966;28;20055;-44
2024/01/26 05:04:05;;;;;;;2.67;2.15;;;22.60;41.20;;;;;;10460698;28;20051;-45
2024/01/26 05:09:09;;;;;;;2.83;2.17;;;22.60;41.30;;;;;;10450184;28;20045;-48
2024/01/26 05:14:12;;;;;;;3.10;2.38;;;22.60;41.20;;;;;;10441054;28;20044;-44
2024/01/26 05:19:13;;;;;;;4.47;2.67;;;22.70;41.30;;;;;;10446040;28;20047;-50
2024/01/26 05:24:15;;;;;;;3.58;2.80;;;22.50;42.00;;;;;;10450208;28;20048;-44
2024/01/26 05:29:18;;;;;;;3.40;2.70;;;22.50;42.40;;;;;;10454359;28;20041;-44
2024/01/26 05:34:19;;;;;;;4.47;2.90;;;22.50;42.80;;;;;;10457592;28;20040;-44
2024/01/26 05:39:21;;;;;;;10.63;6.28;;;22.50;43.10;;;;;;10458252;28;20128;-44
2024/01/26 05:44:24;;;;;;;9.80;6.70;;;22.80;42.60;;;;;;10452655;28;20052;-52
2024/01/26 05:49:26;;;;;;;10.52;6.82;;;22.40;44.30;;;;;;10463540;28;20048;-44
2024/01/26 05:54:27;;;;;;;9.02;6.95;;;22.40;43.90;;;;;;10465735;28;20056;-46
2024/01/26 05:59:30;;;;;;;11.20;7.45;;;22.50;43.90;;;;;;10453214;28;20052;-50
2024/01/26 06:04:32;;;;;;;8.57;6.68;;;22.40;44.50;;;;;;10452063;28;20056;-47
2024/01/26 06:09:33;;;;;;;12.07;6.68;;;22.80;43.70;;;;;;10446716;28;20061;-50
2024/01/26 06:14:37;;;;;;;10.75;7.22;;;22.90;43.20;;;;;;10460704;28;20044;-44
2024/01/26 06:19:39;;;;;;;12.43;7.60;;;22.80;43.40;;;;;;10456807;28;20054;-44
2024/01/26 06:24:40;;;;;;;11.20;7.20;;;22.80;43.60;;;;;;10459041;28;20485;-52
2024/01/26 06:29:43;;;;;;;10.82;8.05;;;22.80;44.10;;;;;;10462042;28;20595;-48
2024/01/26 06:34:45;;;;;;;10.75;7.32;;;22.70;44.10;;;;;;10443479;28;20049;-45
2024/01/26 06:39:47;;;;;;;10.45;7.90;;;22.60;44.30;;;;;;10454628;28;20474;-46
2024/01/26 06:44:50;;;;;;;18.40;8.57;;;22.70;44.30;;;;;;10454326;28;20148;-45
2024/01/26 06:49:51;;;;;;;26.23;9.65;;;22.80;46.40;;;;;;10461481;28;20086;-46
2024/01/26 06:54:53;;;;;;;15.75;9.15;;;22.80;46.20;;;;;;10450408;28;20046;-44
2024/01/26 06:59:56;;;;;;;27.40;9.68;;;22.50;45.80;;;;;;10457462;28;20049;-44
2024/01/26 07:04:57;;;;;;;20.98;8.98;;;22.60;46.90;;;;;;10455006;28;20049;-44
2024/01/26 07:09:59;;;;;;;33.17;9.45;;;22.70;46.60;;;;;;10449633;28;20053;-44
2024/01/26 07:15:02;;;;;;;28.85;9.00;;;22.70;46.60;;;;;;10443835;28;20148;-45
2024/01/26 07:20:05;;;;;;;45.90;10.65;;;22.60;47.00;;;;;;10448030;28;20048;-46
2024/01/26 07:25:11;;;;;;;31.38;10.60;;;22.70;46.50;;;;;;10452436;28;20126;-44
2024/01/26 07:30:17;;;;;;;25.15;10.43;;;22.70;46.80;;;;;;10455336;28;20049;-44
2024/01/26 07:35:18;;;;;;;25.13;9.98;;;22.80;47.10;;;;;;10457802;28;20515;-45
2024/01/26 07:40:20;;;;;;;21.67;9.63;;;22.80;47.30;;;;;;10460375;28;20041;-47
2024/01/26 07:45:23;;;;;;;19.90;9.43;;;22.70;47.40;;;;;;10459476;28;20136;-44
2024/01/26 07:50:24;;;;;;;18.38;8.57;;;22.80;47.20;;;;;;10450838;28;20077;-45
2024/01/26 07:55:26;;;;;;;17.85;9.27;;;22.80;47.50;;;;;;10447115;28;20050;-53
2024/01/26 08:00:29;;;;;;;17.60;8.63;;;22.80;47.10;;;;;;10452023;28;20095;-46
2024/01/26 08:05:31;;;;;;;15.77;8.05;;;22.90;46.90;;;;;;10443627;28;20135;-49
2024/01/26 08:10:32;;;;;;;12.18;7.80;;;23.10;46.50;;;;;;10441153;28;20139;-45
2024/01/26 08:15:35;;;;;;;16.40;7.53;;;22.90;46.70;;;;;;10452668;28;20091;-44
2024/01/26 08:20:37;;;;;;;18.17;7.40;;;22.80;47.20;;;;;;10449895;28;20040;-44
2024/01/26 08:25:39;;;;;;;13.35;7.45;;;22.90;46.90;;;;;;10439440;28;20499;-44
2024/01/26 08:30:42;;;;;;;12.60;6.45;;;22.70;47.20;;;;;;10445710;28;20084;-45
2024/01/26 08:35:43;;;;;;;10.13;5.63;;;22.60;47.70;;;;;;10447149;28;20121;-47
2024/01/26 08:40:45;;;;;;;12.82;6.20;;;22.50;47.80;;;;;;10443893;28;20148;-44
2024/01/26 08:45:48;;;;;;;9.63;5.28;;;22.50;48.50;;;;;;10447695;28;20063;-47
2024/01/26 08:50:50;;;;;;;17.05;6.35;;;22.40;48.50;;;;;;10450476;28;20056;-47
2024/01/26 08:55:52;;;;;;;38.95;9.13;;;22.60;48.60;;;;;;10454064;28;20047;-50
2024/01/26 09:00:55;;;;;;;32.17;8.85;;;22.70;48.80;;;;;;10430197;28;20063;-48
2024/01/26 09:05:56;;;;;;;31.88;8.48;;;22.80;48.40;;;;;;10440401;28;20131;-46
2024/01/26 09:10:58;;;;;;;31.90;7.32;;;22.90;48.30;;;;;;10429418;28;20048;-45
2024/01/26 09:16:01;;;;;;;23.90;7.22;;;22.80;48.20;;;;;;10437649;28;20045;-48
2024/01/26 09:21:02;;;;;;;25.25;6.43;;;23.00;47.50;;;;;;10437138;28;20045;-46
2024/01/26 09:26:04;;;;;;;17.40;5.55;;;23.10;46.80;;;;;;10442613;28;20068;-50
2024/01/26 09:31:07;;;;;;;16.15;6.03;;;23.00;47.00;;;;;;10436265;28;20069;-47
2024/01/26 09:36:10;;;;;;;16.55;5.18;;;23.30;46.20;;;;;;10447443;28;20119;-46
2024/01/26 09:41:11;;;;;;;13.48;4.88;;;23.20;46.20;;;;;;10434491;28;20040;-45
2024/01/26 09:46:14;;;;;;;10.80;4.88;;;23.20;46.30;;;;;;10436951;28;20040;-53
2024/01/26 09:51:16;;;;;;;10.98;4.93;;;23.30;45.90;;;;;;10448186;28;20044;-44
2024/01/26 09:56:18;;;;;;;8.70;4.75;;;23.10;46.40;;;;;;10443893;28;20521;-48
2024/01/26 10:01:22;;;;;;;12.82;4.38;;;23.10;46.40;;;;;;10435776;28;20131;-50
2024/01/26 10:06:24;;;;;;;9.25;4.03;;;22.90;47.00;;;;;;10436770;28;20136;-52
2024/01/26 10:11:25;;;;;;;8.23;3.60;;;22.90;47.00;;;;;;10449097;28;20040;-44
2024/01/26 10:16:28;;;;;;;8.52;3.53;;;22.90;47.10;;;;;;10447083;28;20099;-46
2024/01/26 10:21:30;;;;;;;7.00;3.47;;;23.00;46.80;;;;;;10441728;28;20040;-46
2024/01/26 10:26:31;;;;;;;8.13;3.38;;;23.00;46.80;;;;;;10450883;28;20053;-47
2024/01/26 10:31:35;;;;;;;6.18;2.92;;;23.10;46.60;;;;;;10450830;28;20040;-51
2024/01/26 10:36:37;;;;;;;7.45;3.20;;;23.10;46.50;;;;;;10444546;28;20541;-45
2024/01/26 10:41:39;;;;;;;6.35;3.47;;;23.20;46.50;;;;;;10441231;28;20514;-44
2024/01/26 10:46:42;;;;;;;5.72;3.10;;;23.20;46.40;;;;;;10451590;28;20053;-46
2024/01/26 10:51:44;;;;;;;4.25;3.22;;;23.20;46.40;;;;;;10447929;28;20037;-46
2024/01/26 10:56:46;;;;;;;7.32;2.75;;;23.30;46.30;;;;;;10447692;28;20426;-44
2024/01/26 11:01:49;;;;;;;4.05;2.60;;;23.30;46.10;;;;;;10449937;28;20036;-44
2024/01/26 11:06:50;;;;;;;7.25;3.05;;;23.30;46.10;;;;;;10450738;28;20080;-51
2024/01/26 11:11:53;;;;;;;9.32;2.38;;;23.50;46.50;;;;;;10454991;28;20470;-45
2024/01/26 11:17:08;;;;;;;4.35;2.20;;;23.50;46.90;;;;;;10460854;28;20130;-44
2024/01/26 11:22:10;;;;;;;5.00;2.05;;;23.40;47.60;;;;;;10457279;28;20055;-47
2024/01/26 11:27:12;;;;;;;5.13;2.08;;;23.40;47.50;;;;;;10458864;28;20140;-45
2024/01/26 11:32:16;;;;;;;4.55;1.90;;;23.30;47.60;;;;;;10446483;28;20041;-49
2024/01/26 11:37:18;;;;;;;5.68;1.70;;;23.30;47.50;;;;;;10452710;28;20056;-48
2024/01/26 11:42:19;;;;;;;3.53;1.83;;;23.30;47.60;;;;;;10457370;28;20120;-45
2024/01/26 11:47:22;;;;;;;2.78;1.63;;;23.40;47.50;;;;;;10453812;28;20217;-45
2024/01/26 11:52:24;;;;;;;4.43;2.00;;;23.40;47.40;;;;;;10451911;28;20044;-46
2024/01/26 11:57:26;;;;;;;2.53;1.45;;;23.40;47.40;;;;;;10453157;28;20041;-49
2024/01/26 12:02:28;;;;;;;4.88;1.70;;;23.50;47.20;;;;;;10453661;28;20414;-48
2024/01/26 12:07:30;;;;;;;2.47;1.63;;;23.60;47.10;;;;;;10444963;28;20439;-45
2024/01/26 12:12:32;;;;;;;3.20;1.42;;;23.60;47.00;;;;;;10447705;28;20049;-45
2024/01/26 12:17:36;;;;;;;3.60;1.70;;;23.60;46.80;;;;;;10447155;28;20409;-47
2024/01/26 12:22:37;;;;;;;2.00;1.40;;;23.60;46.80;;;;;;10450969;28;20072;-45
2024/01/26 12:27:39;;;;;;;2.05;1.30;;;23.70;46.70;;;;;;10461127;28;20136;-44
2024/01/26 12:32:42;;;;;;;3.60;1.60;;;23.70;46.70;;;;;;10455175;28;20048;-47
2024/01/26 12:37:44;;;;;;;3.38;1.70;;;23.70;46.50;;;;;;10457456;28;20518;-47
2024/01/26 12:42:46;;;;;;;2.53;1.50;;;23.70;46.60;;;;;;10456474;28;20413;-47
2024/01/26 12:47:49;;;;;;;3.63;1.70;;;23.80;46.40;;;;;;10449070;28;20142;-47
2024/01/26 12:52:51;;;;;;;4.90;1.75;;;23.90;46.20;;;;;;10441971;28;20054;-44
2024/01/26 12:57:52;;;;;;;2.95;1.40;;;23.90;46.10;;;;;;10453679;28;20130;-47
2024/01/26 13:02:55;;;;;;;2.45;1.40;;;24.00;45.90;;;;;;10454057;28;20056;-45
2024/01/26 13:07:57;;;;;;;2.65;1.60;;;23.90;45.90;;;;;;10462270;28;20132;-45
2024/01/26 13:12:59;;;;;;;2.92;1.40;;;23.90;45.80;;;;;;10443654;28;20044;-45
2024/01/26 13:18:02;;;;;;;8.65;2.63;;;24.00;45.70;;;;;;10439415;28;20079;-52
2024/01/26 13:23:04;;;;;;;5.03;1.92;;;24.00;45.70;;;;;;10449637;28;20090;-45
2024/01/26 13:28:06;;;;;;;8.73;1.75;;;24.00;45.70;;;;;;10456484;28;20503;-45
2024/01/26 13:33:10;;;;;;;7.30;1.90;;;24.10;45.40;;;;;;10439397;28;20423;-47
2024/01/26 13:38:11;;;;;;;5.30;2.00;;;24.20;45.10;;;;;;10454630;28;20044;-49
2024/01/26 13:43:13;;;;;;;6.25;1.88;;;24.30;44.60;;;;;;10461723;28;20041;-49
2024/01/26 13:48:16;;;;;;;5.82;1.92;;;24.30;44.50;;;;;;10446608;28;20055;-44
2024/01/26 13:53:20;;;;;;;5.57;1.88;;;24.30;44.20;;;;;;10453368;28;20041;-44
2024/01/26 13:58:22;;;;;;;4.95;1.95;;;24.20;44.30;;;;;;10444446;28;20069;-49
2024/01/26 14:03:25;;;;;;;4.70;1.85;;;24.10;44.10;;;;;;10465990;28;20559;-45
2024/01/26 14:08:27;;;;;;;4.55;1.80;;;24.10;44.10;;;;;;10454979;28;20494;-50
2024/01/26 14:13:29;;;;;;;5.10;1.92;;;24.10;43.90;;;;;;10457428;28;20609;-44
2024/01/26 14:18:32;;;;;;;5.13;1.75;;;24.20;43.80;;;;;;10465568;28;20037;-47
2024/01/26 14:23:35;;;;;;;6.88;1.80;;;24.30;43.50;;;;;;10463766;28;20047;-44
2024/01/26 14:28:36;;;;;;;4.82;1.75;;;24.30;43.50;;;;;;10452115;28;20507;-45
2024/01/26 14:33:39;;;;;;;10.73;2.60;;;24.30;43.40;;;;;;10444979;28;20043;-48
2024/01/26 14:38:43;;;;;;;8.90;2.00;;;24.40;40.90;;;;;;10448585;28;20095;-44
2024/01/26 14:43:44;;;;;;;18.23;2.80;;;23.70;40.40;;;;;;10446551;28;20124;-46
2024/01/26 14:48:48;;;;;;;10.80;2.40;;;23.50;40.90;;;;;;10444399;28;20045;-44
2024/01/26 14:53:51;;;;;;;15.95;2.85;;;23.80;40.40;;;;;;10452569;28;20053;-47
2024/01/26 14:58:52;;;;;;;19.70;2.33;;;23.90;40.80;;;;;;10466443;28;20391;-44
2024/01/26 15:03:56;;;;;;;12.55;3.05;;;24.10;40.50;;;;;;10446233;28;20075;-47
2024/01/26 15:08:58;;;;;;;10.07;2.60;;;23.90;41.10;;;;;;10445216;28;20044;-49
2024/01/26 15:13:59;;;;;;;12.20;2.85;;;23.80;42.20;;;;;;10439308;28;20045;-45
2024/01/26 15:19:03;;;;;;;15.50;2.47;;;23.90;42.60;;;;;;10446079;28;20049;-45
2024/01/26 15:24:05;;;;;;;14.45;2.63;;;23.90;43.20;;;;;;10453774;28;20041;-47
2024/01/26 15:29:07;;;;;;;8.55;2.58;;;23.80;44.40;;;;;;10453252;28;20044;-48
2024/01/26 15:34:10;;;;;;;15.88;2.70;;;23.90;44.30;;;;;;10473940;22;20113;-65
2024/01/26 15:39:12;;;;;;;14.68;2.83;;;24.20;42.80;;;;;;10485472;28;20048;-66
2024/01/26 15:44:13;;;;;;;9.10;2.88;;;24.40;41.60;;;;;;10459677;28;20099;-67
2024/01/26 15:49:17;;;;;;;15.25;2.75;;;24.00;39.90;;;;;;10436320;28;20045;-66
2024/01/26 15:54:18;;;;;;;17.85;2.83;;;24.10;41.40;;;;;;10440051;28;20045;-64
2024/01/26 15:59:20;;;;;;;12.80;2.67;;;24.00;42.50;;;;;;10440746;28;20098;-67
2024/01/26 16:04:23;;;;;;;11.50;2.63;;;24.30;39.90;;;;;;10440492;28;20041;-66
2024/01/26 16:09:25;;;;;;;9.43;2.95;;;24.30;38.30;;;;;;10432113;28;20088;-66
2024/01/26 16:14:26;;;;;;;7.90;2.60;;;24.30;37.70;;;;;;10439949;28;20047;-67
2024/01/26 16:19:30;;;;;;;10.20;3.03;;;24.10;37.80;;;;;;10440849;28;20041;-67
2024/01/26 16:24:32;;;;;;;12.88;2.95;;;24.00;37.30;;;;;;10435209;28;20130;-67
2024/01/26 16:29:33;;;;;;;9.90;3.25;;;24.00;38.20;;;;;;10438170;28;20501;-65
2024/01/26 16:34:36;;;;;;;12.82;2.38;;;23.90;37.80;;;;;;10439779;28;20079;-66
2024/01/26 16:39:38;;;;;;;12.40;3.08;;;23.70;39.50;;;;;;10433335;28;20045;-66
2024/01/26 16:44:41;;;;;;;11.80;2.67;;;23.70;40.30;;;;;;10431221;28;20084;-66
2024/01/26 16:49:44;;;;;;;14.43;3.10;;;23.70;40.70;;;;;;10431544;28;20448;-66
2024/01/26 16:54:46;;;;;;;17.30;2.90;;;23.80;41.50;;;;;;10435098;28;20051;-67
2024/01/26 16:59:48;;;;;;;11.90;2.70;;;23.80;41.70;;;;;;10440015;28;20130;-65
2024/01/26 17:04:51;;;;;;;14.35;3.30;;;24.00;42.20;;;;;;10431502;28;20053;-65
2024/01/26 17:09:53;;;;;;;12.45;3.30;;;24.30;39.40;;;;;;10428052;28;20568;-65
2024/01/26 17:14:54;;;;;;;10.38;2.90;;;24.40;39.10;;;;;;10435825;28;20077;-65
2024/01/26 17:19:57;;;;;;;11.52;3.40;;;24.10;39.30;;;;;;10426175;28;20041;-64
2024/01/26 17:24:59;;;;;;;14.63;3.58;;;24.10;38.90;;;;;;10433518;28;20068;-65
2024/01/26 17:30:01;;;;;;;11.50;3.17;;;24.20;38.20;;;;;;10427867;28;20546;-65
2024/01/26 17:35:04;;;;;;;10.60;3.10;;;24.30;37.30;;;;;;10425520;28;20050;-65
2024/01/26 17:40:10;;;;;;;14.18;3.92;;;24.30;37.00;;;;;;10429225;28;20073;-66
2024/01/26 17:45:11;;;;;;;13.43;4.18;;;24.20;36.50;;;;;;10425769;28;20049;-65
2024/01/26 17:50:14;;;;;;;14.60;3.42;;;24.30;36.50;;;;;;10423368;28;20111;-64
2024/01/26 17:55:16;;;;;;;19.60;3.80;;;24.10;36.40;;;;;;10423807;28;20520;-64
2024/01/26 18:00:18;;;;;;;11.88;3.33;;;24.20;36.20;;;;;;10429712;28;20073;-64
2024/01/26 18:05:22;;;;;;;16.48;3.25;;;24.30;36.60;;;;;;10434562;28;20496;-63
2024/01/26 18:10:24;;;;;;;15.93;3.28;;;24.30;37.50;;;;;;10435620;28;20049;-65
2024/01/26 18:15:25;;;;;;;12.65;3.40;;;24.20;38.70;;;;;;10432451;28;20076;-64
2024/01/26 18:20:28;;;;;;;11.52;3.28;;;24.20;39.40;;;;;;10427406;28;20049;-63
2024/01/26 18:25:30;;;;;;;13.23;3.42;;;24.10;40.00;;;;;;10434939;28;20509;-64
2024/01/26 18:30:32;;;;;;;9.07;3.20;;;24.30;39.90;;;;;;10440745;28;20044;-62
2024/01/26 18:35:35;;;;;;;10.27;3.33;;;23.90;41.40;;;;;;10430174;28;20080;-65
2024/01/26 18:40:37;;;;;;;12.23;3.30;;;24.20;41.50;;;;;;10431671;28;20045;-63
2024/01/26 18:45:39;;;;;;;12.07;3.78;;;24.00;42.30;;;;;;10434262;28;20073;-60
2024/01/26 18:50:42;;;;;;;10.65;3.10;;;24.00;43.00;;;;;;10439549;28;20072;-58
2024/01/26 18:55:47;;;;;;;10.02;3.28;;;24.10;42.90;;;;;;10434408;28;20095;-60
2024/01/26 19:00:49;;;;;;;11.38;4.15;;;24.20;43.00;;;;;;10430256;28;20380;-60
2024/01/26 19:05:52;;;;;;;10.60;3.38;;;24.30;42.80;;;;;;10434743;28;20123;-56
2024/01/26 19:10:54;;;;;;;8.75;3.28;;;24.10;43.90;;;;;;10434629;28;20053;-56
2024/01/26 19:15:56;;;;;;;10.23;3.25;;;24.10;44.20;;;;;;10436105;28;20136;-57
2024/01/26 19:20:59;;;;;;;12.68;3.03;;;24.30;43.90;;;;;;10434670;28;20055;-60
2024/01/26 19:26:05;;;;;;;7.05;2.97;;;24.40;43.50;;;;;;10435953;28;20099;-59
2024/01/26 19:31:08;;;;;;;9.32;2.83;;;24.40;44.00;;;;;;10423125;28;20057;-61
2024/01/26 19:36:12;;;;;;;6.68;2.63;;;24.40;42.80;;;;;;10433156;28;20042;-60
2024/01/26 19:41:14;;;;;;;7.78;2.60;;;24.50;42.70;;;;;;10432904;28;20049;-59
2024/01/26 19:46:16;;;;;;;10.18;3.05;;;24.60;42.20;;;;;;10429914;28;20132;-59
2024/01/26 19:51:19;;;;;;;7.40;2.60;;;24.60;42.00;;;;;;10432763;28;20069;-58
2024/01/26 19:56:20;;;;;;;8.63;2.40;;;24.70;41.70;;;;;;10427663;28;20041;-59
2024/01/26 20:01:22;;;;;;;7.78;2.97;;;24.80;41.40;;;;;;10433253;28;20084;-59
2024/01/26 20:06:25;;;;;;;8.13;2.70;;;24.70;41.30;;;;;;10428006;28;20494;-60
2024/01/26 20:11:27;;;;;;;8.05;2.70;;;24.60;41.40;;;;;;10425007;28;20069;-61
2024/01/26 20:16:28;;;;;;;8.30;2.40;;;24.60;41.80;;;;;;10425137;28;20122;-56
2024/01/26 20:21:31;;;;;;;7.55;2.55;;;24.50;41.20;;;;;;10428873;28;20466;-60
2024/01/26 20:26:33;;;;;;;4.88;2.30;;;24.30;41.30;;;;;;10445872;22;20470;-52
2024/01/26 20:31:35;;;;;;;6.32;2.05;;;24.20;41.30;;;;;;10461265;28;20080;-58
2024/01/26 20:36:40;;;;;;;7.40;2.47;;;24.10;41.50;;;;;;10428805;28;20067;-56
2024/01/26 20:41:41;;;;;;;7.70;2.05;;;23.70;42.30;;;;;;10432700;28;20049;-57
2024/01/26 20:46:45;;;;;;;5.53;2.28;;;23.60;42.60;;;;;;10433484;28;20046;-58
2024/01/26 20:51:50;;;;;;;4.88;2.13;;;23.60;42.60;;;;;;10431852;28;20080;-55
2024/01/26 20:56:51;;;;;;;9.20;2.67;;;23.50;42.90;;;;;;10429820;28;20072;-55
2024/01/26 21:01:53;;;;;;;4.93;2.17;;;23.50;42.90;;;;;;10440286;28;20101;-60
2024/01/26 21:06:56;;;;;;;5.60;2.22;;;23.40;43.00;;;;;;10431839;28;20080;-52
2024/01/26 21:11:57;;;;;;;6.10;2.25;;;23.20;43.50;;;;;;10429182;28;20048;-59
2024/01/26 21:17:01;;;;;;;6.93;2.22;;;23.20;43.50;;;;;;10437926;28;20064;-53
2024/01/26 21:22:04;;;;;;;9.90;2.13;;;23.20;43.40;;;;;;10431721;28;20053;-58
2024/01/26 21:27:06;;;;;;;5.32;2.10;;;23.10;43.60;;;;;;10428436;28;20069;-55
2024/01/26 21:32:09;;;;;;;8.15;2.50;;;22.90;44.30;;;;;;10431202;28;20049;-56
2024/01/26 21:37:12;;;;;;;8.98;2.20;;;22.80;44.40;;;;;;10431829;28;20550;-58
2024/01/26 21:42:14;;;;;;;6.00;2.13;;;22.80;44.30;;;;;;10433840;28;20084;-54
2024/01/26 21:47:15;;;;;;;4.55;2.00;;;22.90;44.00;;;;;;10430214;28;20061;-58
2024/01/26 21:52:18;;;;;;;5.30;1.77;;;23.00;44.10;;;;;;10426886;28;20578;-57
2024/01/26 21:57:20;;;;;;;7.82;2.13;;;22.90;44.80;;;;;;10425492;28;20104;-53
2024/01/26 22:02:22;;;;;;;5.28;1.83;;;22.90;44.30;;;;;;10432948;28;20096;-55
2024/01/26 22:07:25;;;;;;;6.47;1.90;;;22.90;44.20;;;;;;10435809;28;20054;-59
2024/01/26 22:12:27;;;;;;;9.40;2.05;;;22.90;44.30;;;;;;10428016;28;20053;-58
2024/01/26 22:17:28;;;;;;;11.00;2.20;;;22.90;44.40;;;;;;10436169;28;20073;-59
2024/01/26 22:22:31;;;;;;;6.25;1.90;;;22.90;44.50;;;;;;10438499;28;20473;-58
2024/01/26 22:27:33;;;;;;;6.00;2.00;;;22.90;44.50;;;;;;10438736;28;20427;-60
2024/01/26 22:32:34;;;;;;;6.75;2.08;;;23.10;44.20;;;;;;10434492;28;20045;-57
2024/01/26 22:37:38;;;;;;;7.18;2.10;;;23.00;44.30;;;;;;10427725;28;20052;-56
2024/01/26 22:42:40;;;;;;;7.75;2.00;;;23.10;44.20;;;;;;10436240;28;20053;-57
2024/01/26 22:47:41;;;;;;;5.22;1.70;;;23.10;44.10;;;;;;10435819;28;20072;-58
2024/01/26 22:52:44;;;;;;;5.20;1.80;;;23.10;44.10;;;;;;10433692;28;20112;-55
2024/01/26 22:57:46;;;;;;;9.07;1.77;;;23.00;44.10;;;;;;10431796;28;20960;-60
2024/01/26 23:02:48;;;;;;;7.15;2.70;;;23.10;44.30;;;;;;10435824;28;20072;-58
2024/01/26 23:07:51;;;;;;;7.80;2.35;;;23.10;44.00;;;;;;10438929;28;20389;-59
2024/01/26 23:12:53;;;;;;;9.23;2.33;;;22.90;44.00;;;;;;10434773;28;20049;-56
2024/01/26 23:17:55;;;;;;;6.32;2.20;;;22.90;44.00;;;;;;10430488;28;20424;-58
2024/01/26 23:22:59;;;;;;;8.60;2.83;;;22.90;43.90;;;;;;10427985;28;20462;-58
2024/01/26 23:28:00;;;;;;;8.15;2.70;;;22.80;44.00;;;;;;10430479;28;20080;-59
2024/01/26 23:33:02;;;;;;;5.93;2.38;;;22.70;44.20;;;;;;10429264;28;20053;-58
2024/01/26 23:38:05;;;;;;;10.45;2.95;;;22.60;44.20;;;;;;10432343;28;20127;-57
2024/01/26 23:43:07;;;;;;;9.60;2.42;;;22.60;44.10;;;;;;10433442;28;20053;-57
2024/01/26 23:48:10;;;;;;;9.80;2.55;;;22.60;44.20;;;;;;10429908;28;20115;-57
2024/01/26 23:53:13;;;;;;;6.10;2.40;;;22.50;44.20;;;;;;10426653;28;20059;-59
2024/01/26 23:58:15;;;;;;;5.10;2.10;;;22.40;44.30;;;;;;10437018;28;20081;-60
